sensor_id;sensor_type;location;lat;lon;timestamp;pressure;altitude;pressure_sealevel;temperature;humidity
14242;BME280;7205;50.864;12.766;2022-09-09T00:00:13;97261.44;;;14.98;83.46
14242;BME280;7205;50.864;12.766;2022-09-09T00:02:43;97268.59;;;14.97;83.64
14242;BME280;7205;50.864;12.766;2022-09-09T00:05:17;97264.53;;;14.95;83.81
14242;BME280;7205;50.864;12.766;2022-09-09T00:07:50;97265.53;;;14.94;83.95
14242;BME280;7205;50.864;12.766;2022-09-09T00:10:23;97264.91;;;14.92;83.75
14242;BME280;7205;50.864;12.766;2022-09-09T00:12:55;97266.16;;;14.89;83.99
14242;BME280;7205;50.864;12.766;2022-09-09T00:15:28;97258.63;;;14.86;84.07
14242;BME280;7205;50.864;12.766;2022-09-09T00:18:02;97258.84;;;14.85;84.41
14242;BME280;7205;50.864;12.766;2022-09-09T00:20:34;97257.19;;;14.84;84.70
14242;BME280;7205;50.864;12.766;2022-09-09T00:23:09;97254.97;;;14.81;84.62
14242;BME280;7205;50.864;12.766;2022-09-09T00:25:54;97254.78;;;14.76;84.71
14242;BME280;7205;50.864;12.766;2022-09-09T00:28:27;97253.94;;;14.75;84.88
14242;BME280;7205;50.864;12.766;2022-09-09T00:31:00;97249.06;;;14.72;84.87
14242;BME280;7205;50.864;12.766;2022-09-09T00:33:30;97250.31;;;14.70;84.98
14242;BME280;7205;50.864;12.766;2022-09-09T00:35:58;97247.88;;;14.68;84.99
14242;BME280;7205;50.864;12.766;2022-09-09T00:38:30;97245.59;;;14.65;85.16
14242;BME280;7205;50.864;12.766;2022-09-09T00:41:10;97244.41;;;14.61;84.97
14242;BME280;7205;50.864;12.766;2022-09-09T00:43:39;97243.81;;;14.59;85.10
14242;BME280;7205;50.864;12.766;2022-09-09T00:46:38;97239.91;;;14.55;85.44
14242;BME280;7205;50.864;12.766;2022-09-09T00:49:15;97242.16;;;14.52;85.84
14242;BME280;7205;50.864;12.766;2022-09-09T00:51:55;97246.69;;;14.51;86.02
14242;BME280;7205;50.864;12.766;2022-09-09T00:54:40;97244.47;;;14.48;85.95
14242;BME280;7205;50.864;12.766;2022-09-09T00:57:23;97242.19;;;14.45;86.38
14242;BME280;7205;50.864;12.766;2022-09-09T00:59:59;97242.19;;;14.45;86.24
14242;BME280;7205;50.864;12.766;2022-09-09T01:02:35;97245.88;;;14.44;86.31
14242;BME280;7205;50.864;12.766;2022-09-09T01:05:11;97245.88;;;14.44;86.82
14242;BME280;7205;50.864;12.766;2022-09-09T01:07:43;97233.25;;;14.40;86.89
14242;BME280;7205;50.864;12.766;2022-09-09T01:10:22;97239.56;;;14.39;87.05
14242;BME280;7205;50.864;12.766;2022-09-09T01:12:55;97243.03;;;14.39;86.88
14242;BME280;7205;50.864;12.766;2022-09-09T01:15:28;97242.22;;;14.39;87.63
14242;BME280;7205;50.864;12.766;2022-09-09T01:18:05;97245.91;;;14.38;87.77
14242;BME280;7205;50.864;12.766;2022-09-09T01:20:39;97247.53;;;14.39;87.91
14242;BME280;7205;50.864;12.766;2022-09-09T01:23:25;97245.09;;;14.37;88.00
14242;BME280;7205;50.864;12.766;2022-09-09T01:26:23;97246.91;;;14.37;87.98
14242;BME280;7205;50.864;12.766;2022-09-09T01:28:54;97244.09;;;14.38;88.24
14242;BME280;7205;50.864;12.766;2022-09-09T01:31:32;97244.09;;;14.38;88.09
14242;BME280;7205;50.864;12.766;2022-09-09T01:34:09;97239.56;;;14.39;88.34
14242;BME280;7205;50.864;12.766;2022-09-09T01:36:42;97238.34;;;14.41;88.11
14242;BME280;7205;50.864;12.766;2022-09-09T01:39:11;97245.06;;;14.44;88.61
14242;BME280;7205;50.864;12.766;2022-09-09T01:41:46;97246.94;;;14.43;88.21
14242;BME280;7205;50.864;12.766;2022-09-09T01:44:17;97235.47;;;14.43;88.19
14242;BME280;7205;50.864;12.766;2022-09-09T01:46:45;97244.44;;;14.42;88.15
14242;BME280;7205;50.864;12.766;2022-09-09T01:49:16;97233.25;;;14.40;88.27
14242;BME280;7205;50.864;12.766;2022-09-09T01:51:46;97236.13;;;14.38;88.49
14242;BME280;7205;50.864;12.766;2022-09-09T01:54:17;97232.84;;;14.36;88.28
14242;BME280;7205;50.864;12.766;2022-09-09T01:56:55;97235.72;;;14.35;88.63
14242;BME280;7205;50.864;12.766;2022-09-09T01:59:41;97236.94;;;14.32;88.56
14242;BME280;7205;50.864;12.766;2022-09-09T02:02:18;97237.34;;;14.29;89.07
14242;BME280;7205;50.864;12.766;2022-09-09T02:05:15;97227.16;;;14.26;88.79
14242;BME280;7205;50.864;12.766;2022-09-09T02:07:47;97238.78;;;14.25;89.29
14242;BME280;7205;50.864;12.766;2022-09-09T02:10:34;97234.69;;;14.23;89.31
14242;BME280;7205;50.864;12.766;2022-09-09T02:13:14;97239.38;;;14.21;89.28
14242;BME280;7205;50.864;12.766;2022-09-09T02:15:47;97243.88;;;14.20;89.67
14242;BME280;7205;50.864;12.766;2022-09-09T02:18:25;97245.94;;;14.18;89.64
14242;BME280;7205;50.864;12.766;2022-09-09T02:20:54;97235.31;;;14.18;90.16
14242;BME280;7205;50.864;12.766;2022-09-09T02:23:21;97233.25;;;14.20;90.30
14242;BME280;7205;50.864;12.766;2022-09-09T02:25:53;97239.38;;;14.21;90.46
14242;BME280;7205;50.864;12.766;2022-09-09T02:28:26;97236.72;;;14.21;90.26
14242;BME280;7205;50.864;12.766;2022-09-09T02:30:55;97238.34;;;14.22;90.43
14242;BME280;7205;50.864;12.766;2022-09-09T02:33:33;97233.03;;;14.22;90.34
14242;BME280;7205;50.864;12.766;2022-09-09T02:36:03;97236.50;;;14.22;90.14
14242;BME280;7205;50.864;12.766;2022-09-09T02:38:35;97234.88;;;14.21;90.36
14242;BME280;7205;50.864;12.766;2022-09-09T02:41:08;97234.06;;;14.21;90.29
14242;BME280;7205;50.864;12.766;2022-09-09T02:43:37;97230.59;;;14.20;90.49
14242;BME280;7205;50.864;12.766;2022-09-09T02:46:19;97232.44;;;14.20;90.27
14242;BME280;7205;50.864;12.766;2022-09-09T02:48:59;97234.28;;;14.19;90.46
14242;BME280;7205;50.864;12.766;2022-09-09T02:51:36;97228.97;;;14.19;90.13
14242;BME280;7205;50.864;12.766;2022-09-09T02:54:16;97231.63;;;14.19;90.31
14242;BME280;7205;50.864;12.766;2022-09-09T02:56:48;97235.69;;;14.22;90.32
14242;BME280;7205;50.864;12.766;2022-09-09T02:59:20;97227.94;;;14.20;90.41
14242;BME280;7205;50.864;12.766;2022-09-09T03:01:47;97218.13;;;14.21;90.48
14242;BME280;7205;50.864;12.766;2022-09-09T03:04:14;97223.44;;;14.21;90.71
14242;BME280;7205;50.864;12.766;2022-09-09T03:06:41;97226.09;;;14.21;90.36
14242;BME280;7205;50.864;12.766;2022-09-09T03:09:16;97222.63;;;14.20;90.34
14242;BME280;7205;50.864;12.766;2022-09-09T03:11:43;97230.59;;;14.20;90.29
14242;BME280;7205;50.864;12.766;2022-09-09T03:14:11;97233.44;;;14.19;90.84
14242;BME280;7205;50.864;12.766;2022-09-09T03:16:41;97227.34;;;14.18;90.13
14242;BME280;7205;50.864;12.766;2022-09-09T03:19:08;97224.69;;;14.18;90.09
14242;BME280;7205;50.864;12.766;2022-09-09T03:21:35;97229.38;;;14.16;90.09
14242;BME280;7205;50.864;12.766;2022-09-09T03:24:02;97232.84;;;14.17;90.16
14242;BME280;7205;50.864;12.766;2022-09-09T03:26:30;97238.16;;;14.17;90.39
14242;BME280;7205;50.864;12.766;2022-09-09T03:28:57;97235.69;;;14.15;90.13
14242;BME280;7205;50.864;12.766;2022-09-09T03:31:26;97237.34;;;14.16;90.28
14242;BME280;7205;50.864;12.766;2022-09-09T03:33:57;97238.34;;;14.15;90.33
14242;BME280;7205;50.864;12.766;2022-09-09T03:36:29;97236.75;;;14.14;90.30
14242;BME280;7205;50.864;12.766;2022-09-09T03:38:56;97234.09;;;14.14;90.36
14242;BME280;7205;50.864;12.766;2022-09-09T03:41:25;97235.91;;;14.14;90.30
14242;BME280;7205;50.864;12.766;2022-09-09T03:43:53;97235.91;;;14.14;90.29
14242;BME280;7205;50.864;12.766;2022-09-09T03:46:23;97239.41;;;14.14;90.16
14242;BME280;7205;50.864;12.766;2022-09-09T03:48:51;97233.25;;;14.14;90.41
14242;BME280;7205;50.864;12.766;2022-09-09T03:51:20;97236.75;;;14.14;90.43
14242;BME280;7205;50.864;12.766;2022-09-09T03:53:47;97239.19;;;14.16;90.49
14242;BME280;7205;50.864;12.766;2022-09-09T03:56:15;97233.88;;;14.16;90.39
14242;BME280;7205;50.864;12.766;2022-09-09T03:58:42;97235.50;;;14.17;90.11
14242;BME280;7205;50.864;12.766;2022-09-09T04:01:12;97233.66;;;14.17;90.24
14242;BME280;7205;50.864;12.766;2022-09-09T04:03:40;97237.97;;;14.18;90.28
14242;BME280;7205;50.864;12.766;2022-09-09T04:06:09;97234.50;;;14.18;90.24
14242;BME280;7205;50.864;12.766;2022-09-09T04:08:39;97234.50;;;14.18;90.21
14242;BME280;7205;50.864;12.766;2022-09-09T04:11:07;97228.13;;;14.19;90.13
14242;BME280;7205;50.864;12.766;2022-09-09T04:13:37;97239.38;;;14.21;90.13
14242;BME280;7205;50.864;12.766;2022-09-09T04:16:09;97223.44;;;14.21;90.17
14242;BME280;7205;50.864;12.766;2022-09-09T04:18:37;97224.06;;;14.23;90.28
14242;BME280;7205;50.864;12.766;2022-09-09T04:21:05;97210.56;;;14.24;90.36
14242;BME280;7205;50.864;12.766;2022-09-09T04:23:33;97218.34;;;14.26;90.29
14242;BME280;7205;50.864;12.766;2022-09-09T04:26:02;97215.28;;;14.29;90.24
14242;BME280;7205;50.864;12.766;2022-09-09T04:28:34;97227.34;;;14.31;90.31
14242;BME280;7205;50.864;12.766;2022-09-09T04:31:06;97223.44;;;14.34;90.55
14242;BME280;7205;50.864;12.766;2022-09-09T04:33:33;97222.22;;;14.36;90.35
14242;BME280;7205;50.864;12.766;2022-09-09T04:36:01;97220.97;;;14.39;90.39
14242;BME280;7205;50.864;12.766;2022-09-09T04:38:28;97223.81;;;14.44;90.19
14242;BME280;7205;50.864;12.766;2022-09-09T04:40:55;97226.25;;;14.45;90.25
14242;BME280;7205;50.864;12.766;2022-09-09T04:43:24;97231.97;;;14.49;90.46
14242;BME280;7205;50.864;12.766;2022-09-09T04:45:52;97235.03;;;14.52;90.16
14242;BME280;7205;50.864;12.766;2022-09-09T04:48:22;97232.78;;;14.56;90.14
14242;BME280;7205;50.864;12.766;2022-09-09T04:50:56;97236.66;;;14.60;89.87
14242;BME280;7205;50.864;12.766;2022-09-09T04:53:24;97237.06;;;14.63;89.72
14242;BME280;7205;50.864;12.766;2022-09-09T04:55:52;97236.41;;;14.68;89.74
14242;BME280;7205;50.864;12.766;2022-09-09T04:58:20;97235.78;;;14.72;89.74
14242;BME280;7205;50.864;12.766;2022-09-09T05:00:50;97238.59;;;14.77;89.22
14242;BME280;7205;50.864;12.766;2022-09-09T05:03:18;97243.28;;;14.82;89.67
14242;BME280;7205;50.864;12.766;2022-09-09T05:05:45;97242.66;;;14.86;89.61
14242;BME280;7205;50.864;12.766;2022-09-09T05:08:13;97244.47;;;14.92;89.42
14242;BME280;7205;50.864;12.766;2022-09-09T05:10:41;97247.91;;;14.99;89.49
14242;BME280;7205;50.864;12.766;2022-09-09T05:13:08;97242.56;;;15.06;89.03
14242;BME280;7205;50.864;12.766;2022-09-09T05:15:36;97243.34;;;15.13;88.88
14242;BME280;7205;50.864;12.766;2022-09-09T05:18:04;97244.72;;;15.22;88.51
14242;BME280;7205;50.864;12.766;2022-09-09T05:20:31;97243.88;;;15.28;88.46
14242;BME280;7205;50.864;12.766;2022-09-09T05:22:58;97244.44;;;15.37;88.28
14242;BME280;7205;50.864;12.766;2022-09-09T05:25:28;97247.91;;;15.44;88.06
14242;BME280;7205;50.864;12.766;2022-09-09T05:27:56;97241.72;;;15.50;87.88
14242;BME280;7205;50.864;12.766;2022-09-09T05:30:24;97241.44;;;15.58;87.50
14242;BME280;7205;50.864;12.766;2022-09-09T05:32:52;97242.22;;;15.65;87.34
14242;BME280;7205;50.864;12.766;2022-09-09T05:35:20;97248.09;;;15.73;86.73
14242;BME280;7205;50.864;12.766;2022-09-09T05:37:48;97233.66;;;15.81;86.76
14242;BME280;7205;50.864;12.766;2022-09-09T05:40:15;97235.88;;;15.90;86.66
14242;BME280;7205;50.864;12.766;2022-09-09T05:42:42;97235.34;;;16.00;86.04
14242;BME280;7205;50.864;12.766;2022-09-09T05:45:09;97246.31;;;16.10;85.79
14242;BME280;7205;50.864;12.766;2022-09-09T05:47:38;97242.13;;;16.20;85.40
14242;BME280;7205;50.864;12.766;2022-09-09T05:50:08;97250.22;;;16.32;85.17
14242;BME280;7205;50.864;12.766;2022-09-09T05:52:37;97251.34;;;16.43;84.90
14242;BME280;7205;50.864;12.766;2022-09-09T05:55:06;97248.78;;;16.54;84.48
14242;BME280;7205;50.864;12.766;2022-09-09T05:57:38;97248.03;;;16.65;84.17
14242;BME280;7205;50.864;12.766;2022-09-09T06:00:07;97248.09;;;16.77;83.96
14242;BME280;7205;50.864;12.766;2022-09-09T06:02:39;97254.53;;;16.87;83.71
14242;BME280;7205;50.864;12.766;2022-09-09T06:05:09;97259.34;;;16.97;82.95
14242;BME280;7205;50.864;12.766;2022-09-09T06:07:38;97259.63;;;17.07;82.49
14242;BME280;7205;50.864;12.766;2022-09-09T06:10:08;97259.31;;;17.15;82.28
14242;BME280;7205;50.864;12.766;2022-09-09T06:12:38;97256.69;;;17.26;81.78
14242;BME280;7205;50.864;12.766;2022-09-09T06:15:07;97253.25;;;17.37;81.29
14242;BME280;7205;50.864;12.766;2022-09-09T06:17:34;97259.47;;;17.49;80.66
14242;BME280;7205;50.864;12.766;2022-09-09T06:20:02;97260.31;;;17.62;80.57
14242;BME280;7205;50.864;12.766;2022-09-09T06:22:30;97255.56;;;17.75;80.36
14242;BME280;7205;50.864;12.766;2022-09-09T06:24:59;97250.84;;;17.89;79.24
14242;BME280;7205;50.864;12.766;2022-09-09T06:27:27;97259.22;;;18.04;78.72
14242;BME280;7205;50.864;12.766;2022-09-09T06:29:54;97258.19;;;18.16;78.18
14242;BME280;7205;50.864;12.766;2022-09-09T06:32:21;97259.00;;;18.28;77.44
14242;BME280;7205;50.864;12.766;2022-09-09T06:34:49;97251.00;;;18.40;76.87
14242;BME280;7205;50.864;12.766;2022-09-09T06:37:16;97258.09;;;18.46;75.87
14242;BME280;7205;50.864;12.766;2022-09-09T06:39:47;97260.06;;;18.50;75.27
14242;BME280;7205;50.864;12.766;2022-09-09T06:42:16;97260.97;;;18.56;74.72
14242;BME280;7205;50.864;12.766;2022-09-09T06:44:49;97263.19;;;18.59;74.10
14242;BME280;7205;50.864;12.766;2022-09-09T06:47:23;97255.28;;;18.64;74.01
14242;BME280;7205;50.864;12.766;2022-09-09T06:49:50;97258.41;;;18.72;74.16
14242;BME280;7205;50.864;12.766;2022-09-09T06:52:17;97265.03;;;18.82;73.58
14242;BME280;7205;50.864;12.766;2022-09-09T06:54:45;97258.72;;;18.88;73.35
14242;BME280;7205;50.864;12.766;2022-09-09T06:57:15;97258.56;;;18.94;72.37
14242;BME280;7205;50.864;12.766;2022-09-09T06:59:42;97264.03;;;18.99;72.55
14242;BME280;7205;50.864;12.766;2022-09-09T07:02:10;97263.69;;;19.07;72.28
14242;BME280;7205;50.864;12.766;2022-09-09T07:04:37;97261.66;;;19.14;72.24
14242;BME280;7205;50.864;12.766;2022-09-09T07:07:04;97259.41;;;19.23;71.85
14242;BME280;7205;50.864;12.766;2022-09-09T07:09:32;97265.22;;;19.31;71.15
14242;BME280;7205;50.864;12.766;2022-09-09T07:11:58;97257.28;;;19.36;71.38
14242;BME280;7205;50.864;12.766;2022-09-09T07:14:30;97264.06;;;19.39;71.13
14242;BME280;7205;50.864;12.766;2022-09-09T07:17:00;97265.44;;;19.41;70.72
14242;BME280;7205;50.864;12.766;2022-09-09T07:19:32;97266.81;;;19.44;70.72
14242;BME280;7205;50.864;12.766;2022-09-09T07:22:01;97262.59;;;19.48;70.62
14242;BME280;7205;50.864;12.766;2022-09-09T07:24:29;97265.13;;;19.54;70.73
14242;BME280;7205;50.864;12.766;2022-09-09T07:26:56;97266.59;;;19.62;70.39
14242;BME280;7205;50.864;12.766;2022-09-09T07:29:24;97275.31;;;19.69;70.34
14242;BME280;7205;50.864;12.766;2022-09-09T07:31:52;97276.19;;;19.74;69.84
14242;BME280;7205;50.864;12.766;2022-09-09T07:34:25;97275.25;;;19.80;69.72
14242;BME280;7205;50.864;12.766;2022-09-09T07:36:51;97284.41;;;19.84;69.17
14242;BME280;7205;50.864;12.766;2022-09-09T07:39:19;97284.75;;;19.88;69.09
14242;BME280;7205;50.864;12.766;2022-09-09T07:41:50;97283.22;;;19.92;68.73
14242;BME280;7205;50.864;12.766;2022-09-09T07:44:23;97289.16;;;19.94;68.72
14242;BME280;7205;50.864;12.766;2022-09-09T07:46:58;97288.66;;;19.97;68.60
14242;BME280;7205;50.864;12.766;2022-09-09T07:49:32;97295.13;;;20.01;68.79
14242;BME280;7205;50.864;12.766;2022-09-09T07:52:02;97292.78;;;20.05;68.81
14242;BME280;7205;50.864;12.766;2022-09-09T07:54:29;97289.06;;;20.06;68.55
14242;BME280;7205;50.864;12.766;2022-09-09T07:56:59;97287.19;;;20.06;68.53
14242;BME280;7205;50.864;12.766;2022-09-09T07:59:28;97295.56;;;20.10;68.67
14242;BME280;7205;50.864;12.766;2022-09-09T08:01:56;97293.56;;;20.17;69.24
14242;BME280;7205;50.864;12.766;2022-09-09T08:04:28;97290.00;;;20.28;69.15
14242;BME280;7205;50.864;12.766;2022-09-09T08:06:58;97294.69;;;20.37;69.03
14242;BME280;7205;50.864;12.766;2022-09-09T08:09:27;97288.66;;;20.47;69.13
14242;BME280;7205;50.864;12.766;2022-09-09T08:12:01;97293.13;;;20.58;69.09
14242;BME280;7205;50.864;12.766;2022-09-09T08:14:29;97300.00;;;20.70;68.57
14242;BME280;7205;50.864;12.766;2022-09-09T08:16:57;97296.63;;;20.80;68.16
14242;BME280;7205;50.864;12.766;2022-09-09T08:19:28;97292.22;;;20.90;67.96
14242;BME280;7205;50.864;12.766;2022-09-09T08:21:56;97282.72;;;20.99;67.61
14242;BME280;7205;50.864;12.766;2022-09-09T08:24:23;97286.84;;;21.07;67.26
14242;BME280;7205;50.864;12.766;2022-09-09T08:26:51;97289.94;;;21.21;67.32
14242;BME280;7205;50.864;12.766;2022-09-09T08:29:22;97293.88;;;21.35;66.48
14242;BME280;7205;50.864;12.766;2022-09-09T08:31:52;97292.16;;;21.50;65.94
14242;BME280;7205;50.864;12.766;2022-09-09T08:34:20;97292.31;;;21.65;65.96
14242;BME280;7205;50.864;12.766;2022-09-09T08:36:51;97293.00;;;21.77;64.90
14242;BME280;7205;50.864;12.766;2022-09-09T08:39:22;97290.41;;;21.87;64.68
14242;BME280;7205;50.864;12.766;2022-09-09T08:45:02;97298.66;;;22.07;63.49
14242;BME280;7205;50.864;12.766;2022-09-09T08:47:41;97290.97;;;22.21;63.68
14242;BME280;7205;50.864;12.766;2022-09-09T08:50:20;97298.91;;;22.37;63.24
14242;BME280;7205;50.864;12.766;2022-09-09T08:52:56;97301.47;;;22.54;63.11
14242;BME280;7205;50.864;12.766;2022-09-09T08:55:38;97300.22;;;22.67;62.74
14242;BME280;7205;50.864;12.766;2022-09-09T08:58:13;97295.44;;;22.74;60.99
14242;BME280;7205;50.864;12.766;2022-09-09T09:00:55;97301.34;;;22.76;60.57
14242;BME280;7205;50.864;12.766;2022-09-09T09:03:33;97298.94;;;22.79;59.90
14242;BME280;7205;50.864;12.766;2022-09-09T09:06:18;97291.97;;;22.83;59.91
14242;BME280;7205;50.864;12.766;2022-09-09T09:08:59;97289.03;;;22.90;59.64
14242;BME280;7205;50.864;12.766;2022-09-09T09:11:35;97289.63;;;22.97;58.89
14242;BME280;7205;50.864;12.766;2022-09-09T09:14:04;97284.78;;;22.99;57.70
14242;BME280;7205;50.864;12.766;2022-09-09T09:16:39;97292.31;;;22.97;56.84
14242;BME280;7205;50.864;12.766;2022-09-09T09:19:12;97294.13;;;22.81;56.01
14242;BME280;7205;50.864;12.766;2022-09-09T09:21:42;97288.06;;;22.59;56.27
14242;BME280;7205;50.864;12.766;2022-09-09T09:24:18;97287.59;;;22.35;57.19
14242;BME280;7205;50.864;12.766;2022-09-09T09:26:46;97290.69;;;22.17;57.86
14242;BME280;7205;50.864;12.766;2022-09-09T09:29:15;97281.66;;;21.97;57.85
14242;BME280;7205;50.864;12.766;2022-09-09T09:31:44;97287.03;;;21.75;58.35
14242;BME280;7205;50.864;12.766;2022-09-09T09:34:14;97291.72;;;21.58;59.10
14242;BME280;7205;50.864;12.766;2022-09-09T09:36:43;97286.97;;;21.44;59.35
14242;BME280;7205;50.864;12.766;2022-09-09T09:39:25;97283.88;;;21.30;59.28
14242;BME280;7205;50.864;12.766;2022-09-09T09:41:53;97291.88;;;21.25;59.71
14242;BME280;7205;50.864;12.766;2022-09-09T09:44:25;97296.97;;;21.22;60.06
14242;BME280;7205;50.864;12.766;2022-09-09T09:46:52;97293.16;;;21.17;59.66
14242;BME280;7205;50.864;12.766;2022-09-09T09:49:20;97291.22;;;21.13;59.86
14242;BME280;7205;50.864;12.766;2022-09-09T09:51:46;97289.84;;;21.10;60.68
14242;BME280;7205;50.864;12.766;2022-09-09T09:54:18;97290.91;;;21.09;61.17
14242;BME280;7205;50.864;12.766;2022-09-09T09:56:55;97284.72;;;21.09;61.63
14242;BME280;7205;50.864;12.766;2022-09-09T09:59:33;97280.66;;;21.06;61.37
14242;BME280;7205;50.864;12.766;2022-09-09T10:02:16;97274.97;;;21.03;61.88
14242;BME280;7205;50.864;12.766;2022-09-09T10:04:46;97277.41;;;21.04;61.75
14242;BME280;7205;50.864;12.766;2022-09-09T10:07:18;97277.09;;;21.01;61.13
14242;BME280;7205;50.864;12.766;2022-09-09T10:09:45;97270.09;;;21.00;61.37
14242;BME280;7205;50.864;12.766;2022-09-09T10:12:22;97271.63;;;20.96;60.65
14242;BME280;7205;50.864;12.766;2022-09-09T10:14:56;97268.63;;;20.92;58.78
14242;BME280;7205;50.864;12.766;2022-09-09T10:17:31;97279.63;;;20.91;58.62
14242;BME280;7205;50.864;12.766;2022-09-09T10:20:15;97276.44;;;20.94;59.09
14242;BME280;7205;50.864;12.766;2022-09-09T10:22:49;97273.66;;;21.05;58.68
14242;BME280;7205;50.864;12.766;2022-09-09T10:25:25;97277.84;;;21.18;58.27
14242;BME280;7205;50.864;12.766;2022-09-09T10:28:23;97279.94;;;21.38;58.65
14242;BME280;7205;50.864;12.766;2022-09-09T10:31:04;97284.31;;;21.70;58.55
14242;BME280;7205;50.864;12.766;2022-09-09T10:33:43;97276.81;;;21.99;56.72
14242;BME280;7205;50.864;12.766;2022-09-09T10:36:13;97279.44;;;22.25;55.59
14242;BME280;7205;50.864;12.766;2022-09-09T10:38:46;97274.47;;;22.44;54.76
14242;BME280;7205;50.864;12.766;2022-09-09T10:41:18;97272.44;;;22.56;54.89
14242;BME280;7205;50.864;12.766;2022-09-09T10:44:05;97277.00;;;22.56;53.84
14242;BME280;7205;50.864;12.766;2022-09-09T10:46:47;97274.50;;;22.49;53.54
14242;BME280;7205;50.864;12.766;2022-09-09T10:49:28;97271.69;;;22.34;53.80
14242;BME280;7205;50.864;12.766;2022-09-09T10:52:09;97277.53;;;22.21;54.23
14242;BME280;7205;50.864;12.766;2022-09-09T10:54:48;97277.22;;;22.17;54.47
14242;BME280;7205;50.864;12.766;2022-09-09T10:57:27;97273.00;;;22.26;54.74
14242;BME280;7205;50.864;12.766;2022-09-09T10:59:59;97273.72;;;22.49;54.87
14242;BME280;7205;50.864;12.766;2022-09-09T11:02:31;97280.56;;;22.66;53.68
14242;BME280;7205;50.864;12.766;2022-09-09T11:05:02;97281.44;;;22.77;52.75
14242;BME280;7205;50.864;12.766;2022-09-09T11:07:34;97281.47;;;22.82;52.78
14242;BME280;7205;50.864;12.766;2022-09-09T11:10:21;97268.81;;;22.82;51.96
14242;BME280;7205;50.864;12.766;2022-09-09T11:12:52;97271.50;;;22.82;51.94
14242;BME280;7205;50.864;12.766;2022-09-09T11:15:25;97274.22;;;22.87;52.49
14242;BME280;7205;50.864;12.766;2022-09-09T11:17:56;97275.06;;;22.98;52.37
14242;BME280;7205;50.864;12.766;2022-09-09T11:20:25;97284.31;;;23.17;52.51
14242;BME280;7205;50.864;12.766;2022-09-09T11:22:55;97282.00;;;23.30;51.42
14242;BME280;7205;50.864;12.766;2022-09-09T11:25:30;97269.59;;;23.44;51.27
14242;BME280;7205;50.864;12.766;2022-09-09T11:28:12;97271.00;;;23.57;50.91
14242;BME280;7205;50.864;12.766;2022-09-09T11:30:52;97270.75;;;23.69;51.11
14242;BME280;7205;50.864;12.766;2022-09-09T11:33:48;97271.03;;;23.77;50.29
14242;BME280;7205;50.864;12.766;2022-09-09T11:36:43;97263.78;;;23.83;50.42
14242;BME280;7205;50.864;12.766;2022-09-09T11:39:38;97265.66;;;23.87;50.23
14242;BME280;7205;50.864;12.766;2022-09-09T11:42:17;97267.53;;;23.92;49.33
14242;BME280;7205;50.864;12.766;2022-09-09T11:44:45;97260.00;;;23.84;48.86
14242;BME280;7205;50.864;12.766;2022-09-09T11:47:25;97257.81;;;23.66;49.05
14242;BME280;7205;50.864;12.766;2022-09-09T11:50:07;97263.19;;;23.50;48.87
14242;BME280;7205;50.864;12.766;2022-09-09T11:52:38;97266.38;;;23.37;49.01
14242;BME280;7205;50.864;12.766;2022-09-09T11:55:09;97271.22;;;23.30;48.67
14242;BME280;7205;50.864;12.766;2022-09-09T11:57:38;97268.19;;;23.22;48.68
14242;BME280;7205;50.864;12.766;2022-09-09T12:00:06;97270.59;;;23.18;48.95
14242;BME280;7205;50.864;12.766;2022-09-09T12:02:48;97269.75;;;23.13;48.29
14242;BME280;7205;50.864;12.766;2022-09-09T12:05:16;97266.78;;;23.14;48.50
14242;BME280;7205;50.864;12.766;2022-09-09T12:07:50;97257.66;;;23.15;49.15
14242;BME280;7205;50.864;12.766;2022-09-09T12:10:22;97258.69;;;23.14;48.46
14242;BME280;7205;50.864;12.766;2022-09-09T12:12:50;97258.97;;;23.13;48.70
14242;BME280;7205;50.864;12.766;2022-09-09T12:15:21;97254.16;;;23.20;49.30
14242;BME280;7205;50.864;12.766;2022-09-09T12:17:51;97239.41;;;23.27;49.16
14242;BME280;7205;50.864;12.766;2022-09-09T12:20:20;97254.75;;;23.32;48.58
14242;BME280;7205;50.864;12.766;2022-09-09T12:23:14;97239.41;;;23.32;48.54
14242;BME280;7205;50.864;12.766;2022-09-09T12:28:45;97236.72;;;23.27;48.13
14242;BME280;7205;50.864;12.766;2022-09-09T12:31:22;97237.97;;;23.15;48.53
14242;BME280;7205;50.864;12.766;2022-09-09T12:33:52;97221.75;;;23.05;48.38
14242;BME280;7205;50.864;12.766;2022-09-09T12:36:21;97223.59;;;22.94;48.67
14242;BME280;7205;50.864;12.766;2022-09-09T12:38:50;97237.56;;;22.81;48.52
14242;BME280;7205;50.864;12.766;2022-09-09T12:41:21;97241.53;;;22.64;48.39
14242;BME280;7205;50.864;12.766;2022-09-09T12:43:50;97225.56;;;22.52;48.83
14242;BME280;7205;50.864;12.766;2022-09-09T12:46:23;97224.94;;;22.40;49.33
14242;BME280;7205;50.864;12.766;2022-09-09T12:48:53;97224.09;;;22.34;49.66
14242;BME280;7205;50.864;12.766;2022-09-09T12:51:24;97213.00;;;22.26;49.52
14242;BME280;7205;50.864;12.766;2022-09-09T12:53:52;97222.13;;;22.20;49.79
14242;BME280;7205;50.864;12.766;2022-09-09T12:56:20;97220.19;;;22.15;50.05
14242;BME280;7205;50.864;12.766;2022-09-09T12:58:50;97213.72;;;22.11;49.81
14242;BME280;7205;50.864;12.766;2022-09-09T13:01:21;97209.38;;;22.10;49.53
14242;BME280;7205;50.864;12.766;2022-09-09T13:03:49;97208.88;;;22.13;49.35
14242;BME280;7205;50.864;12.766;2022-09-09T13:06:21;97204.84;;;22.16;49.50
14242;BME280;7205;50.864;12.766;2022-09-09T13:08:49;97200.38;;;22.26;49.35
14242;BME280;7205;50.864;12.766;2022-09-09T13:11:20;97211.44;;;22.35;49.13
14242;BME280;7205;50.864;12.766;2022-09-09T13:13:53;97205.53;;;22.38;48.61
14242;BME280;7205;50.864;12.766;2022-09-09T13:16:23;97211.75;;;22.38;47.76
14242;BME280;7205;50.864;12.766;2022-09-09T13:18:52;97216.03;;;22.39;47.70
14242;BME280;7205;50.864;12.766;2022-09-09T13:21:33;97216.88;;;22.40;48.15
14242;BME280;7205;50.864;12.766;2022-09-09T13:24:00;97211.03;;;22.53;48.19
14242;BME280;7205;50.864;12.766;2022-09-09T13:26:29;97210.00;;;22.64;47.50
14242;BME280;7205;50.864;12.766;2022-09-09T13:29:08;97206.31;;;22.75;47.04
14242;BME280;7205;50.864;12.766;2022-09-09T13:31:43;97209.84;;;22.91;45.87